createdAt,value
2019-03-22T00:01:17.504Z,43.50
2019-03-22T00:04:23.907Z,43.50
2019-03-22T00:07:30.115Z,43.40
2019-03-22T00:10:36.419Z,43.40
2019-03-22T00:13:42.581Z,43.80
2019-03-22T00:16:48.846Z,43.50
2019-03-22T00:19:55.143Z,43.50
2019-03-22T00:23:01.373Z,43.50
2019-03-22T00:26:07.656Z,43.50
2019-03-22T00:29:13.836Z,43.40
2019-03-22T00:32:20.194Z,43.50
2019-03-22T00:35:26.482Z,43.50
2019-03-22T00:38:33.716Z,43.60
2019-03-22T00:41:40.045Z,43.50
2019-03-22T00:44:46.305Z,43.50
2019-03-22T00:47:52.520Z,43.40
2019-03-22T00:50:58.820Z,43.40
2019-03-22T00:54:05.062Z,43.40
2019-03-22T00:57:11.313Z,43.40
2019-03-22T01:00:18.338Z,43.40
2019-03-22T01:03:24.564Z,43.40
2019-03-22T01:06:30.763Z,43.40
2019-03-22T01:09:37.158Z,43.50
2019-03-22T01:12:43.370Z,44.00
2019-03-22T01:15:49.683Z,43.50
2019-03-22T01:18:55.904Z,43.40
2019-03-22T01:22:03.900Z,43.40
2019-03-22T01:25:10.688Z,43.40
2019-03-22T01:28:16.952Z,43.40
2019-03-22T01:31:23.152Z,43.50
2019-03-22T01:34:29.415Z,43.50
2019-03-22T01:37:35.680Z,43.50
2019-03-22T01:40:41.947Z,43.50
2019-03-22T01:43:48.208Z,43.50
2019-03-22T01:46:54.456Z,43.50
2019-03-22T01:50:00.654Z,43.50
2019-03-22T01:53:06.988Z,43.40
2019-03-22T01:56:14.388Z,43.50
2019-03-22T01:59:20.655Z,43.50
2019-03-22T02:02:26.824Z,43.50
2019-03-22T02:05:33.083Z,43.60
2019-03-22T02:08:39.355Z,43.50
2019-03-22T02:11:45.628Z,43.60
2019-03-22T02:14:51.928Z,43.60
2019-03-22T02:17:58.163Z,43.60
2019-03-22T02:21:04.420Z,43.70
2019-03-22T02:24:10.697Z,43.80
2019-03-22T02:27:16.979Z,43.70
2019-03-22T02:30:23.284Z,43.70
2019-03-22T02:33:29.530Z,43.70
2019-03-22T02:36:35.757Z,43.70
2019-03-22T02:39:42.051Z,43.70
2019-03-22T02:42:48.424Z,43.80
2019-03-22T02:45:54.821Z,44.00
2019-03-22T02:49:01.132Z,43.60
2019-03-22T02:52:07.397Z,44.50
2019-03-22T02:55:14.015Z,43.90
2019-03-22T02:58:21.356Z,44.00
2019-03-22T03:01:27.895Z,43.90
2019-03-22T03:04:34.244Z,43.90
2019-03-22T03:08:26.211Z,44.00
2019-03-22T03:11:35.339Z,43.90
2019-03-22T03:14:41.548Z,44.10
2019-03-22T03:17:47.947Z,44.10
2019-03-22T03:20:54.246Z,44.10
2019-03-22T03:24:01.522Z,44.10
2019-03-22T03:27:08.703Z,44.10
2019-03-22T03:30:16.089Z,44.10
2019-03-22T03:33:22.454Z,44.00
2019-03-22T03:36:28.745Z,44.00
2019-03-22T03:39:34.967Z,44.00
2019-03-22T03:42:41.239Z,44.00
2019-03-22T03:45:47.569Z,44.00
2019-03-22T03:48:53.785Z,44.00
2019-03-22T03:52:00.070Z,44.10
2019-03-22T03:55:07.079Z,44.10
2019-03-22T03:58:13.151Z,44.10
2019-03-22T04:01:19.249Z,44.10
2019-03-22T04:04:25.247Z,44.10
2019-03-22T04:07:31.273Z,44.20
2019-03-22T04:10:37.564Z,44.20
2019-03-22T04:13:43.564Z,44.30
2019-03-22T04:16:49.596Z,44.20
2019-03-22T04:19:55.587Z,44.30
2019-03-22T04:23:01.621Z,44.30
2019-03-22T04:26:07.724Z,44.30
2019-03-22T04:29:13.729Z,44.40
2019-03-22T04:32:19.820Z,44.40
2019-03-22T04:35:25.817Z,44.40
2019-03-22T04:38:31.844Z,44.40
2019-03-22T04:41:37.888Z,44.50
2019-03-22T04:44:43.890Z,44.30
2019-03-22T04:47:53.116Z,44.50
2019-03-22T04:51:01.357Z,44.40
2019-03-22T04:54:08.455Z,44.40
2019-03-22T04:57:15.498Z,44.50
2019-03-22T05:00:22.287Z,44.50
2019-03-22T05:03:29.589Z,44.50
2019-03-22T05:06:36.520Z,44.40
2019-03-22T05:09:42.911Z,44.50
2019-03-22T05:12:50.155Z,44.50
2019-03-22T05:15:56.847Z,44.40
2019-03-22T05:19:04.802Z,44.50
2019-03-22T05:22:14.207Z,44.50
2019-03-22T05:25:21.912Z,44.50
2019-03-22T05:28:29.411Z,44.50
2019-03-22T05:32:00.992Z,44.50
2019-03-22T05:35:07.486Z,44.50
2019-03-22T05:38:14.620Z,44.50
2019-03-22T05:41:20.617Z,44.50
2019-03-22T05:44:26.604Z,44.40
2019-03-22T05:47:32.603Z,44.30
2019-03-22T05:50:38.600Z,44.80
2019-03-22T05:53:44.591Z,44.30
2019-03-22T05:56:50.584Z,44.30
2019-03-22T05:59:56.576Z,44.30
2019-03-22T06:03:03.745Z,44.20
2019-03-22T06:06:09.737Z,44.20
2019-03-22T06:09:15.727Z,44.20
2019-03-22T06:12:21.759Z,44.30
2019-03-22T06:15:27.751Z,44.20
2019-03-22T06:18:33.741Z,44.10
2019-03-22T06:21:39.739Z,44.30
2019-03-22T06:24:45.732Z,44.20
2019-03-22T06:27:51.729Z,44.20
2019-03-22T06:30:57.723Z,44.30
2019-03-22T06:34:03.739Z,44.20
2019-03-22T06:37:09.728Z,44.20
2019-03-22T06:40:15.767Z,44.20
2019-03-22T06:43:21.808Z,44.30
2019-03-22T06:46:27.795Z,44.20
2019-03-22T06:49:33.795Z,44.30
2019-03-22T06:52:40.889Z,44.20
2019-03-22T06:55:46.883Z,44.30
2019-03-22T06:58:52.881Z,44.30
2019-03-22T07:01:58.937Z,44.20
2019-03-22T07:05:05.081Z,44.20
2019-03-22T07:08:12.215Z,44.30
2019-03-22T07:11:18.203Z,44.20
2019-03-22T07:14:24.195Z,44.40
2019-03-22T07:17:30.208Z,44.40
2019-03-22T07:20:36.255Z,44.30
2019-03-22T07:23:42.288Z,44.30
2019-03-22T07:26:48.285Z,44.20
2019-03-22T07:29:54.332Z,44.30
2019-03-22T07:33:00.340Z,44.60
2019-03-22T07:36:06.336Z,44.60
2019-03-22T07:39:13.253Z,44.60
2019-03-22T07:42:22.875Z,44.60
2019-03-22T07:45:35.264Z,44.70
2019-03-22T07:48:45.760Z,44.50
2019-03-22T07:51:52.666Z,44.40
2019-03-22T07:55:01.116Z,44.30
2019-03-22T07:58:18.674Z,44.30
2019-03-22T08:01:27.325Z,44.30
2019-03-22T08:04:36.837Z,44.30
2019-03-22T08:07:43.763Z,44.20
2019-03-22T08:10:50.825Z,44.10
2019-03-22T08:13:58.473Z,44.10
2019-03-22T08:17:04.534Z,44.30
2019-03-22T08:20:10.648Z,44.20
2019-03-22T08:23:21.776Z,44.40
2019-03-22T08:26:27.800Z,44.40
2019-03-22T08:29:33.860Z,44.50
2019-03-22T08:32:39.872Z,44.60
2019-03-22T08:35:45.952Z,44.70
2019-03-22T08:38:52.116Z,44.70
2019-03-22T08:41:58.145Z,44.60
2019-03-22T08:45:04.316Z,44.60
2019-03-22T08:48:10.364Z,44.60
2019-03-22T08:51:16.403Z,44.50
2019-03-22T08:54:22.483Z,44.40
2019-03-22T08:57:28.479Z,44.40
2019-03-22T09:00:39.552Z,44.20
2019-03-22T09:03:42.327Z,44.20
2019-03-22T09:06:48.413Z,44.20
2019-03-22T09:09:54.481Z,44.20
2019-03-22T09:13:00.484Z,44.00
2019-03-22T09:16:06.635Z,44.00
2019-03-22T09:19:12.720Z,43.90
2019-03-22T09:22:18.725Z,43.80
2019-03-22T09:25:24.898Z,43.80
2019-03-22T09:28:30.896Z,43.80
2019-03-22T09:31:36.975Z,43.90
2019-03-22T09:34:43.037Z,43.80
2019-03-22T09:37:49.071Z,43.80
2019-03-22T09:40:55.136Z,43.80
2019-03-22T09:44:01.272Z,43.80
2019-03-22T09:47:07.389Z,43.80
2019-03-22T09:50:14.875Z,43.70
2019-03-22T09:53:21.506Z,43.60
2019-03-22T09:56:27.592Z,43.60
2019-03-22T09:59:33.661Z,43.50
2019-03-22T10:02:39.799Z,43.50
2019-03-22T10:05:45.756Z,43.50
2019-03-22T10:08:51.856Z,43.80
2019-03-22T10:11:58.016Z,43.30
2019-03-22T10:15:04.141Z,43.40
2019-03-22T10:18:10.640Z,43.50
2019-03-22T10:21:22.321Z,43.60
2019-03-22T10:24:24.813Z,43.80
2019-03-22T10:27:31.210Z,44.00
2019-03-22T10:30:37.408Z,44.00
2019-03-22T10:33:43.708Z,44.00
2019-03-22T10:36:52.173Z,44.10
2019-03-22T10:39:58.364Z,44.10
2019-03-22T10:43:05.853Z,44.80
2019-03-22T10:46:12.061Z,44.20
2019-03-22T10:49:18.339Z,44.10
2019-03-22T10:52:24.694Z,44.20
2019-03-22T10:55:31.076Z,44.50
2019-03-22T10:58:37.463Z,44.40
2019-03-22T11:01:57.555Z,43.60
2019-03-22T11:04:53.395Z,43.80
2019-03-22T11:07:59.612Z,43.70
2019-03-22T11:11:06.330Z,45.00
2019-03-22T11:14:13.575Z,46.10
2019-03-22T11:17:19.827Z,46.70
2019-03-22T11:20:26.087Z,45.40
2019-03-22T11:23:32.384Z,48.20
2019-03-22T11:26:38.748Z,48.80
2019-03-22T11:29:45.020Z,48.60
2019-03-22T11:32:51.262Z,48.80
2019-03-22T11:35:57.527Z,48.80
2019-03-22T11:39:03.991Z,48.60
2019-03-22T11:42:10.188Z,48.60
2019-03-22T11:45:18.300Z,48.50
2019-03-22T11:48:24.679Z,48.50
2019-03-22T11:51:31.315Z,48.50
2019-03-22T11:54:37.579Z,47.20
2019-03-22T11:57:43.879Z,47.10
2019-03-22T12:00:50.256Z,47.20
2019-03-22T12:03:56.736Z,47.00
2019-03-22T12:07:02.967Z,46.90
2019-03-22T12:10:09.868Z,47.00
2019-03-22T12:13:16.117Z,47.60
2019-03-22T12:16:22.372Z,47.70
2019-03-22T12:19:28.693Z,48.50
2019-03-22T12:22:34.917Z,48.00
2019-03-22T12:25:41.231Z,48.60
2019-03-22T12:28:47.473Z,48.40
2019-03-22T12:31:53.729Z,48.10
2019-03-22T12:35:00.027Z,48.50
2019-03-22T12:38:06.268Z,48.40
2019-03-22T12:41:12.624Z,48.00
2019-03-22T12:44:19.035Z,46.10
2019-03-22T12:47:27.024Z,46.20
2019-03-22T12:50:33.311Z,46.20
2019-03-22T12:53:39.548Z,46.30
2019-03-22T12:56:45.801Z,46.30
2019-03-22T12:59:52.336Z,46.30
2019-03-22T13:02:58.556Z,46.30
2019-03-22T13:06:05.421Z,46.40
2019-03-22T13:09:11.728Z,46.30
2019-03-22T13:12:17.952Z,46.30
2019-03-22T13:15:24.252Z,46.20
2019-03-22T13:18:30.612Z,46.10
2019-03-22T13:21:37.097Z,46.20
2019-03-22T13:24:43.432Z,46.20
2019-03-22T13:27:49.722Z,46.20
2019-03-22T13:30:56.477Z,46.30
2019-03-22T13:34:02.744Z,46.20
2019-03-22T13:37:09.004Z,46.30
2019-03-22T13:40:15.449Z,46.40
2019-03-22T13:43:21.663Z,46.30
2019-03-22T13:46:27.948Z,46.50
2019-03-22T13:49:34.179Z,46.30
2019-03-22T13:52:40.451Z,46.40
2019-03-22T13:55:46.752Z,46.40
2019-03-22T13:58:52.984Z,47.70
2019-03-22T14:01:59.214Z,48.80
2019-03-22T14:05:06.196Z,49.70
2019-03-22T14:08:12.400Z,50.20
2019-03-22T14:11:18.719Z,52.00
2019-03-22T14:15:16.096Z,52.60
2019-03-22T14:18:24.079Z,49.30
2019-03-22T14:21:30.308Z,50.00
2019-03-22T14:24:36.572Z,51.40
2019-03-22T14:27:42.843Z,51.50
2019-03-22T14:30:49.164Z,52.00
2019-03-22T14:33:55.401Z,52.80
2019-03-22T14:37:03.549Z,52.70
2019-03-22T14:40:15.433Z,53.20
2019-03-22T14:43:19.281Z,53.80
2019-03-22T14:46:25.488Z,54.10
2019-03-22T14:49:31.733Z,54.50
2019-03-22T14:52:38.001Z,54.40
2019-03-22T14:55:44.276Z,54.60
2019-03-22T14:58:52.217Z,54.20
2019-03-22T15:01:58.360Z,54.10
2019-03-22T15:05:05.168Z,54.70
2019-03-22T15:08:11.373Z,54.80
2019-03-22T15:11:17.703Z,55.10
2019-03-22T15:14:48.652Z,54.90
2019-03-22T15:18:15.447Z,55.10
2019-03-22T15:21:39.369Z,55.40
2019-03-22T15:25:22.988Z,55.10
2019-03-22T15:28:46.806Z,55.80
2019-03-22T15:32:14.971Z,56.60
2019-03-22T15:35:46.088Z,56.70
2019-03-22T15:39:11.481Z,56.70
2019-03-22T15:42:17.796Z,56.80
2019-03-22T15:45:24.051Z,57.30
2019-03-22T15:48:30.348Z,56.50
2019-03-22T15:51:37.580Z,56.00
2019-03-22T15:54:45.571Z,55.90
2019-03-22T15:57:51.824Z,55.80
2019-03-22T16:00:58.019Z,55.70
2019-03-22T16:04:04.424Z,55.80
2019-03-22T16:07:10.663Z,55.70
2019-03-22T16:10:17.162Z,56.00
2019-03-22T16:13:24.372Z,56.10
2019-03-22T16:16:30.588Z,56.50
2019-03-22T16:19:36.990Z,56.60
2019-03-22T16:22:43.245Z,56.60
2019-03-22T16:25:49.467Z,57.50
2019-03-22T16:28:55.779Z,56.70
2019-03-22T16:32:02.020Z,56.60
2019-03-22T16:35:08.724Z,56.20
2019-03-22T16:38:14.988Z,55.70
2019-03-22T16:41:21.240Z,55.40
2019-03-22T16:44:27.528Z,55.20
2019-03-22T16:47:33.764Z,55.30
2019-03-22T16:50:40.071Z,55.30
2019-03-22T16:53:46.317Z,55.10
2019-03-22T16:56:52.544Z,55.10
2019-03-22T16:59:58.887Z,55.20
2019-03-22T17:03:07.800Z,55.10
2019-03-22T17:06:14.129Z,54.70
2019-03-22T17:09:20.386Z,54.20
2019-03-22T17:12:26.648Z,54.00
2019-03-22T17:15:32.925Z,53.80
2019-03-22T17:18:39.200Z,53.90
2019-03-22T17:21:45.468Z,53.70
2019-03-22T17:24:51.719Z,54.10
2019-03-22T17:27:58.826Z,54.10
2019-03-22T17:31:05.066Z,54.20
2019-03-22T17:34:14.487Z,54.00
2019-03-22T17:37:19.245Z,53.90
2019-03-22T17:40:25.536Z,53.80
2019-03-22T17:43:31.895Z,54.10
2019-03-22T17:46:38.153Z,54.00
2019-03-22T17:49:48.542Z,54.20
2019-03-22T17:52:53.342Z,54.10
2019-03-22T17:55:59.613Z,54.10
2019-03-22T17:59:05.896Z,54.00
2019-03-22T18:02:12.253Z,54.10
2019-03-22T18:05:18.657Z,53.90
2019-03-22T18:08:24.888Z,53.80
2019-03-22T18:11:31.169Z,53.70
2019-03-22T18:14:37.444Z,53.80
2019-03-22T18:17:43.688Z,53.70
2019-03-22T18:20:49.992Z,54.40
2019-03-22T18:23:56.321Z,53.70
2019-03-22T18:27:02.613Z,53.60
2019-03-22T18:30:09.636Z,53.60
2019-03-22T18:33:15.882Z,53.60
2019-03-22T18:36:22.256Z,53.60
2019-03-22T18:39:28.425Z,53.30
2019-03-22T18:42:34.667Z,53.20
2019-03-22T18:45:40.939Z,53.20
2019-03-22T18:48:48.325Z,53.00
2019-03-22T18:51:54.607Z,53.20
2019-03-22T18:55:00.843Z,53.00
2019-03-22T18:58:08.275Z,53.00
2019-03-22T19:01:14.632Z,53.00
2019-03-22T19:04:20.811Z,52.90
2019-03-22T19:07:27.188Z,53.00
2019-03-22T19:10:35.240Z,53.10
2019-03-22T19:13:41.423Z,53.10
2019-03-22T19:16:47.716Z,52.90
2019-03-22T19:19:54.062Z,52.90
2019-03-22T19:23:00.160Z,52.80
2019-03-22T19:26:06.159Z,52.60
2019-03-22T19:29:12.157Z,52.50
2019-03-22T19:32:18.192Z,52.50
2019-03-22T19:35:24.291Z,52.60
2019-03-22T19:38:30.336Z,52.60
2019-03-22T19:41:36.341Z,52.30
2019-03-22T19:44:43.480Z,52.30
2019-03-22T19:47:50.833Z,52.70
2019-03-22T19:50:56.827Z,52.10
2019-03-22T19:54:02.938Z,51.90
2019-03-22T19:57:09.034Z,51.80
2019-03-22T20:00:15.280Z,51.80
2019-03-22T20:03:21.428Z,51.90
2019-03-22T20:06:27.502Z,51.70
2019-03-22T20:09:33.551Z,51.70
2019-03-22T20:12:39.543Z,51.60
2019-03-22T20:15:45.544Z,51.60
2019-03-22T20:18:51.580Z,51.60
2019-03-22T20:21:57.582Z,51.60
2019-03-22T20:25:03.608Z,51.60
2019-03-22T20:28:09.648Z,51.60
2019-03-22T20:31:15.636Z,51.60
2019-03-22T20:34:21.745Z,51.50
2019-03-22T20:37:27.819Z,51.30
2019-03-22T20:40:33.816Z,51.10
2019-03-22T20:43:39.885Z,51.10
2019-03-22T20:46:45.958Z,51.10
2019-03-22T20:49:52.019Z,50.90
2019-03-22T20:52:58.013Z,50.80
2019-03-22T20:56:04.081Z,50.70
2019-03-22T20:59:10.074Z,50.60
2019-03-22T21:02:16.065Z,50.40
2019-03-22T21:05:27.183Z,50.30
2019-03-22T21:08:30.772Z,50.10
2019-03-22T21:11:36.869Z,49.70
2019-03-22T21:14:42.875Z,49.60
2019-03-22T21:17:48.871Z,49.70
2019-03-22T21:20:54.945Z,49.60
2019-03-22T21:24:00.951Z,49.60
2019-03-22T21:27:15.049Z,49.70
2019-03-22T21:30:14.697Z,49.60
2019-03-22T21:33:20.698Z,49.30
2019-03-22T21:36:26.697Z,49.20
2019-03-22T21:39:32.807Z,49.10
2019-03-22T21:42:38.810Z,49.10
2019-03-22T21:45:44.804Z,48.80
2019-03-22T21:48:50.805Z,48.80
2019-03-22T21:51:56.804Z,48.70
2019-03-22T21:55:02.982Z,48.80
2019-03-22T21:58:09.021Z,48.80
2019-03-22T22:01:15.016Z,48.50
2019-03-22T22:04:21.025Z,48.60
2019-03-22T22:07:27.016Z,48.50
2019-03-22T22:10:34.191Z,48.50
2019-03-22T22:13:40.187Z,48.40
2019-03-22T22:16:46.391Z,49.10
2019-03-22T22:19:52.635Z,48.30
2019-03-22T22:22:58.938Z,48.20
2019-03-22T22:26:05.235Z,48.20
2019-03-22T22:29:11.537Z,48.10
2019-03-22T22:32:17.712Z,48.10
2019-03-22T22:35:23.995Z,47.90
2019-03-22T22:38:30.262Z,47.80
2019-03-22T22:41:36.539Z,47.80
2019-03-22T22:44:42.771Z,47.80
2019-03-22T22:47:49.043Z,47.60
2019-03-22T22:50:57.085Z,47.60
2019-03-22T22:54:05.967Z,47.60
2019-03-22T22:57:12.177Z,47.60
2019-03-22T23:00:18.715Z,47.60
2019-03-22T23:03:26.623Z,47.40
2019-03-22T23:06:32.962Z,47.40
2019-03-22T23:09:39.194Z,47.20
2019-03-22T23:12:45.469Z,47.20
2019-03-22T23:15:51.697Z,47.10
2019-03-22T23:18:57.985Z,47.00
2019-03-22T23:22:04.279Z,47.00
2019-03-22T23:25:10.697Z,47.70
2019-03-22T23:28:16.903Z,46.90
2019-03-22T23:31:23.236Z,46.80
2019-03-22T23:34:29.527Z,46.70
2019-03-22T23:37:35.895Z,46.90
2019-03-22T23:40:42.183Z,46.70
2019-03-22T23:43:48.559Z,46.60
2019-03-22T23:46:54.924Z,46.60
2019-03-22T23:50:02.872Z,46.60
2019-03-22T23:53:09.208Z,46.60
2019-03-22T23:56:15.419Z,46.60
2019-03-22T23:59:21.720Z,46.50
